createdAt,value
2022-10-01T00:00:38.227Z,0
2022-10-01T00:01:35.670Z,0
2022-10-01T00:02:35.262Z,0
2022-10-01T00:03:35.625Z,0
2022-10-01T00:04:35.266Z,0
2022-10-01T00:05:35.182Z,0
2022-10-01T00:06:35.198Z,0
2022-10-01T00:07:35.653Z,0
2022-10-01T00:08:35.562Z,0
2022-10-01T00:09:35.308Z,0
2022-10-01T00:10:35.202Z,0
2022-10-01T00:11:38.241Z,0
2022-10-01T00:12:35.289Z,0
2022-10-01T00:13:35.632Z,0
2022-10-01T00:14:35.291Z,0
2022-10-01T00:15:35.185Z,0
2022-10-01T00:16:35.335Z,0
2022-10-01T00:17:35.226Z,0
2022-10-01T00:18:35.638Z,0
2022-10-01T00:19:35.295Z,0
2022-10-01T00:20:35.189Z,0
2022-10-01T00:21:35.599Z,0
2022-10-01T00:22:41.294Z,0
2022-10-01T00:23:35.560Z,0
2022-10-01T00:24:35.298Z,0
2022-10-01T00:25:35.203Z,0
2022-10-01T00:26:35.200Z,0
2022-10-01T00:27:35.196Z,0
2022-10-01T00:28:35.553Z,0
2022-10-01T00:29:35.191Z,0
2022-10-01T00:30:39.636Z,0
2022-10-01T00:31:35.679Z,0
2022-10-01T00:32:35.209Z,0
2022-10-01T00:33:41.339Z,0
2022-10-01T00:34:35.295Z,0
2022-10-01T00:35:35.204Z,0
2022-10-01T00:36:35.190Z,0
2022-10-01T00:37:35.625Z,0
2022-10-01T00:38:35.554Z,0
2022-10-01T00:39:35.218Z,0
2022-10-01T00:40:35.188Z,0
2022-10-01T00:41:35.663Z,0
2022-10-01T00:42:35.626Z,0
2022-10-01T00:43:35.269Z,0
2022-10-01T00:44:38.233Z,0
2022-10-01T00:45:35.343Z,0
2022-10-01T00:46:35.191Z,0
2022-10-01T00:47:35.636Z,0
2022-10-01T00:48:35.286Z,0
2022-10-01T00:49:35.199Z,0
2022-10-01T00:50:35.168Z,0
2022-10-01T00:51:35.687Z,0
2022-10-01T00:52:35.632Z,0
2022-10-01T00:53:35.291Z,0
2022-10-01T00:54:35.181Z,0
2022-10-01T00:55:38.237Z,0
2022-10-01T00:56:35.307Z,0
2022-10-01T00:57:35.628Z,0
2022-10-01T00:58:35.275Z,0
2022-10-01T00:59:35.204Z,0
2022-10-01T01:00:35.196Z,0
2022-10-01T01:01:35.621Z,0
2022-10-01T01:02:35.692Z,0
2022-10-01T01:03:35.303Z,0
2022-10-01T01:04:35.193Z,0
2022-10-01T01:05:35.214Z,0
2022-10-01T01:06:38.215Z,0
2022-10-01T01:07:35.554Z,0
2022-10-01T01:08:35.283Z,0
2022-10-01T01:09:35.182Z,0
2022-10-01T01:10:35.187Z,0
2022-10-01T01:11:35.631Z,0
2022-10-01T01:12:35.555Z,0
2022-10-01T01:13:35.224Z,0
2022-10-01T01:14:35.204Z,0
2022-10-01T01:15:35.239Z,0
2022-10-01T01:16:35.204Z,0
2022-10-01T01:17:41.318Z,0
2022-10-01T01:18:35.262Z,0
2022-10-01T01:19:35.185Z,0
2022-10-01T01:20:35.194Z,0
2022-10-01T01:21:35.517Z,0
2022-10-01T01:22:35.636Z,0
2022-10-01T01:23:35.208Z,0
2022-10-01T01:24:35.203Z,0
2022-10-01T01:25:35.209Z,0
2022-10-01T01:26:35.205Z,0
2022-10-01T01:27:35.623Z,0
2022-10-01T01:28:38.213Z,0
2022-10-01T01:29:35.294Z,0
2022-10-01T01:30:35.218Z,0
2022-10-01T01:31:35.665Z,0
2022-10-01T01:32:35.628Z,0
2022-10-01T01:33:35.273Z,0
2022-10-01T01:34:35.178Z,0
2022-10-01T01:35:35.201Z,0
2022-10-01T01:36:35.203Z,0
2022-10-01T01:37:35.624Z,0
2022-10-01T01:38:35.283Z,0
2022-10-01T01:39:38.176Z,0
2022-10-01T01:40:35.305Z,0
2022-10-01T01:41:35.626Z,0
2022-10-01T01:42:35.621Z,0
2022-10-01T01:43:35.281Z,0
2022-10-01T01:44:35.171Z,0
2022-10-01T01:45:35.240Z,0
2022-10-01T01:46:35.197Z,0
2022-10-01T01:47:35.631Z,0
2022-10-01T01:48:35.289Z,0
2022-10-01T01:49:35.213Z,0
2022-10-01T01:50:38.222Z,0
2022-10-01T01:51:35.611Z,0
2022-10-01T01:52:35.628Z,0
2022-10-01T01:53:35.291Z,0
2022-10-01T01:54:35.185Z,0
2022-10-01T01:55:35.198Z,0
2022-10-01T01:56:35.198Z,0
2022-10-01T01:57:35.627Z,0
2022-10-01T01:58:35.266Z,0
2022-10-01T01:59:35.184Z,0
2022-10-01T02:00:35.198Z,0
2022-10-01T02:01:38.680Z,0
2022-10-01T02:02:35.416Z,0
2022-10-01T02:03:35.204Z,0
2022-10-01T02:04:35.191Z,0
2022-10-01T02:05:35.188Z,0
2022-10-01T02:06:35.190Z,0
2022-10-01T02:07:35.766Z,0
2022-10-01T02:08:35.212Z,0
2022-10-01T02:09:35.205Z,0
2022-10-01T02:10:35.185Z,0
2022-10-01T02:11:35.651Z,0
2022-10-01T02:12:41.301Z,0
2022-10-01T02:13:35.275Z,0
2022-10-01T02:14:35.185Z,0
2022-10-01T02:15:35.261Z,0
2022-10-01T02:16:35.201Z,0
2022-10-01T02:17:35.627Z,0
2022-10-01T02:18:35.183Z,0
2022-10-01T02:19:35.227Z,0
2022-10-01T02:20:35.190Z,0
2022-10-01T02:21:35.629Z,0
2022-10-01T02:22:35.626Z,0
2022-10-01T02:23:38.233Z,0
2022-10-01T02:24:35.270Z,0
2022-10-01T02:25:35.198Z,0
2022-10-01T02:26:35.188Z,0
2022-10-01T02:27:35.636Z,0
2022-10-01T02:28:35.284Z,0
2022-10-01T02:29:35.188Z,0
2022-10-01T02:30:35.192Z,0
2022-10-01T02:31:35.454Z,0
2022-10-01T02:32:35.742Z,0
2022-10-01T02:33:35.251Z,0
2022-10-01T02:34:38.364Z,0
2022-10-01T02:35:35.280Z,0
2022-10-01T02:36:35.186Z,0
2022-10-01T02:37:35.630Z,0
2022-10-01T02:38:35.304Z,0
2022-10-01T02:39:35.167Z,0
2022-10-01T02:40:35.209Z,0
2022-10-01T02:41:35.547Z,0
2022-10-01T02:42:35.624Z,0
2022-10-01T02:43:37.407Z,0
2022-10-01T02:44:35.195Z,0
2022-10-01T02:45:38.283Z,0
2022-10-01T02:46:35.286Z,0
2022-10-01T02:47:35.234Z,0
2022-10-01T02:48:35.185Z,0
2022-10-01T02:49:35.199Z,0
2022-10-01T02:50:35.200Z,0
2022-10-01T02:51:35.657Z,0
2022-10-01T02:52:35.636Z,0
2022-10-01T02:53:35.243Z,0
2022-10-01T02:54:35.200Z,0
2022-10-01T02:55:35.203Z,0
2022-10-01T02:56:48.208Z,0
2022-10-01T02:57:35.569Z,0
2022-10-01T02:58:35.282Z,0
2022-10-01T02:59:35.186Z,0
2022-10-01T03:00:35.200Z,0
2022-10-01T03:01:35.613Z,0
2022-10-01T03:02:35.630Z,0
2022-10-01T03:03:35.213Z,0
2022-10-01T03:04:35.198Z,90.7646484375
2022-10-01T03:05:35.195Z,90.6650390625
2022-10-01T03:06:35.201Z,90.599609375
2022-10-01T03:07:41.265Z,90.37890625
2022-10-01T03:08:35.268Z,90.423828125
2022-10-01T03:09:35.201Z,90.27734375
2022-10-01T03:10:35.205Z,90.080078125
2022-10-01T03:11:35.565Z,89.9267578125
2022-10-01T03:12:35.629Z,89.76171875
2022-10-01T03:13:35.187Z,89.46484375
2022-10-01T03:14:35.181Z,89.2470703125
2022-10-01T03:15:35.217Z,88.818359375
2022-10-01T03:16:35.193Z,88.4716796875
2022-10-01T03:17:35.626Z,88.1318359375
2022-10-01T03:18:38.222Z,87.9482421875
2022-10-01T03:19:35.326Z,87.7216796875
2022-10-01T03:20:35.197Z,87.3779296875
2022-10-01T03:21:35.650Z,87.013671875
2022-10-01T03:22:35.636Z,86.892578125
2022-10-01T03:23:35.493Z,86.5302734375
2022-10-01T03:24:35.182Z,86.4873046875
2022-10-01T03:25:35.216Z,86.3232421875
2022-10-01T03:26:35.203Z,86.3583984375
2022-10-01T03:27:35.633Z,85.931640625
2022-10-01T03:28:35.272Z,85.986328125
2022-10-01T03:29:38.200Z,85.990234375
2022-10-01T03:30:35.251Z,85.8251953125
2022-10-01T03:31:35.957Z,85.71875
2022-10-01T03:32:35.641Z,85.5361328125
2022-10-01T03:33:35.282Z,85.2099609375
2022-10-01T03:34:35.202Z,85.1357421875
2022-10-01T03:35:35.199Z,85.1728515625
2022-10-01T03:36:35.196Z,85.2744140625
2022-10-01T03:37:35.620Z,85.73046875
2022-10-01T03:38:35.274Z,85.96484375
2022-10-01T03:39:35.189Z,86.23828125
2022-10-01T03:40:38.175Z,87.0263671875
2022-10-01T03:41:35.544Z,87.39453125
2022-10-01T03:42:35.622Z,89.482421875
2022-10-01T03:43:35.297Z,90.1357421875
2022-10-01T03:44:35.193Z,0
2022-10-01T03:45:35.277Z,0
2022-10-01T03:46:35.200Z,0
2022-10-01T03:47:35.620Z,0
2022-10-01T03:48:35.291Z,0
2022-10-01T03:49:35.181Z,0
2022-10-01T03:50:35.212Z,0
2022-10-01T03:51:38.271Z,0
2022-10-01T03:52:35.425Z,0
2022-10-01T03:53:35.299Z,0
2022-10-01T03:54:35.180Z,0
2022-10-01T03:55:35.196Z,0
2022-10-01T03:56:35.202Z,0
2022-10-01T03:57:35.549Z,0
2022-10-01T03:58:35.187Z,0
2022-10-01T03:59:35.175Z,0
2022-10-01T04:00:35.196Z,0
2022-10-01T04:01:35.540Z,0
2022-10-01T04:02:41.324Z,0
2022-10-01T04:03:35.271Z,0
2022-10-01T04:04:35.182Z,0
2022-10-01T04:05:35.198Z,0
2022-10-01T04:06:35.207Z,0
2022-10-01T04:07:35.653Z,0
2022-10-01T04:08:35.218Z,0
2022-10-01T04:09:35.228Z,0
2022-10-01T04:10:35.219Z,0
2022-10-01T04:11:35.624Z,0
2022-10-01T04:12:35.628Z,0
2022-10-01T04:13:38.216Z,0
2022-10-01T04:14:35.266Z,0
2022-10-01T04:15:35.187Z,0
2022-10-01T04:16:35.245Z,0
2022-10-01T04:17:35.628Z,0
2022-10-01T04:18:35.371Z,0
2022-10-01T04:19:35.353Z,0
2022-10-01T04:20:35.199Z,0
2022-10-01T04:21:35.755Z,0
2022-10-01T04:22:35.637Z,0
2022-10-01T04:23:35.271Z,0
2022-10-01T04:24:38.208Z,0
2022-10-01T04:25:35.386Z,0
2022-10-01T04:26:35.413Z,0
2022-10-01T04:27:35.362Z,0
2022-10-01T04:28:35.306Z,0
2022-10-01T04:29:39.963Z,0
2022-10-01T04:30:35.330Z,0
2022-10-01T04:31:36.064Z,0
2022-10-01T04:32:35.739Z,0
2022-10-01T04:33:35.269Z,0
2022-10-01T04:34:35.270Z,0
2022-10-01T04:35:41.333Z,0
2022-10-01T04:36:35.288Z,0
2022-10-01T04:37:35.646Z,0
2022-10-01T04:38:35.269Z,0
2022-10-01T04:39:35.649Z,0
2022-10-01T04:40:35.564Z,0
2022-10-01T04:41:35.612Z,0
2022-10-01T04:42:35.331Z,0
2022-10-01T04:43:35.370Z,0
2022-10-01T04:44:35.296Z,0
2022-10-01T04:45:35.357Z,0
2022-10-01T04:46:38.232Z,0
2022-10-01T04:47:37.584Z,0
2022-10-01T04:48:35.188Z,0
2022-10-01T04:49:35.286Z,0
2022-10-01T04:50:35.637Z,0
2022-10-01T04:51:35.787Z,0
2022-10-01T04:52:35.204Z,0
2022-10-01T04:53:35.200Z,0
2022-10-01T04:54:35.651Z,0
2022-10-01T04:55:35.566Z,0
2022-10-01T04:56:35.277Z,0
2022-10-01T04:57:38.209Z,0
2022-10-01T04:58:35.239Z,0
2022-10-01T04:59:35.183Z,0
2022-10-01T05:00:35.738Z,0
2022-10-01T05:01:35.876Z,0
2022-10-01T05:02:35.323Z,0
2022-10-01T05:03:35.330Z,0
2022-10-01T05:04:35.287Z,0
2022-10-01T05:05:35.342Z,0
2022-10-01T05:06:35.404Z,0
2022-10-01T05:07:35.262Z,0
2022-10-01T05:08:38.332Z,0
2022-10-01T05:09:35.570Z,0
2022-10-01T05:10:35.580Z,0
2022-10-01T05:11:35.629Z,0
2022-10-01T05:12:35.215Z,0
2022-10-01T05:13:35.321Z,0
2022-10-01T05:14:35.305Z,0
2022-10-01T05:15:35.645Z,0
2022-10-01T05:16:35.333Z,0
2022-10-01T05:17:35.198Z,0
2022-10-01T05:18:35.197Z,0
2022-10-01T05:19:38.268Z,0
2022-10-01T05:20:35.569Z,0
2022-10-01T05:21:35.642Z,0
2022-10-01T05:22:35.307Z,0
2022-10-01T05:23:35.292Z,0
2022-10-01T05:24:35.562Z,0
2022-10-01T05:25:35.568Z,0
2022-10-01T05:26:35.347Z,0
2022-10-01T05:27:35.367Z,0
2022-10-01T05:28:35.486Z,0
2022-10-01T05:29:35.407Z,0
2022-10-01T05:30:41.269Z,0
2022-10-01T05:31:35.629Z,0
2022-10-01T05:32:35.240Z,0
2022-10-01T05:33:35.324Z,0
2022-10-01T05:34:35.292Z,0
2022-10-01T05:35:35.647Z,0
2022-10-01T05:36:35.203Z,0
2022-10-01T05:37:35.271Z,0
2022-10-01T05:38:35.202Z,0
2022-10-01T05:39:35.637Z,0
2022-10-01T05:40:35.575Z,0
2022-10-01T05:41:38.237Z,0
2022-10-01T05:42:35.266Z,0
2022-10-01T05:43:35.183Z,0
2022-10-01T05:44:35.192Z,0
2022-10-01T05:45:35.662Z,0
2022-10-01T05:46:35.421Z,0
2022-10-01T05:47:35.252Z,0
2022-10-01T05:48:35.301Z,0
2022-10-01T05:49:35.357Z,0
2022-10-01T05:50:35.325Z,0
2022-10-01T05:51:35.788Z,0
2022-10-01T05:52:38.232Z,0
2022-10-01T05:53:35.407Z,0
2022-10-01T05:54:35.570Z,0
2022-10-01T05:55:35.572Z,0
2022-10-01T05:56:35.354Z,0
2022-10-01T05:57:35.201Z,0
2022-10-01T05:58:35.304Z,0
2022-10-01T05:59:35.216Z,0
2022-10-01T06:00:35.570Z,0
2022-10-01T06:01:35.607Z,0
2022-10-01T06:02:35.315Z,0
2022-10-01T06:03:38.229Z,0
2022-10-01T06:04:40.316Z,0
2022-10-01T06:05:35.636Z,0
2022-10-01T06:06:35.267Z,0
2022-10-01T06:07:35.263Z,0
2022-10-01T06:08:35.195Z,0
2022-10-01T06:09:35.570Z,0
2022-10-01T06:10:35.635Z,0
2022-10-01T06:11:35.848Z,0
2022-10-01T06:12:35.282Z,0
2022-10-01T06:13:35.303Z,0
2022-10-01T06:14:38.361Z,0
2022-10-01T06:15:35.359Z,0
2022-10-01T06:16:35.293Z,0
2022-10-01T06:17:35.339Z,0
2022-10-01T06:18:35.383Z,0
2022-10-01T06:19:35.393Z,0
2022-10-01T06:20:35.571Z,0
2022-10-01T06:21:35.701Z,0
2022-10-01T06:22:35.268Z,0
2022-10-01T06:23:35.315Z,0
2022-10-01T06:24:35.560Z,0
2022-10-01T06:25:41.298Z,0
2022-10-01T06:26:35.292Z,0
2022-10-01T06:27:35.200Z,0
2022-10-01T06:28:35.204Z,0
2022-10-01T06:29:35.182Z,0
2022-10-01T06:30:35.648Z,0
2022-10-01T06:31:35.677Z,0
2022-10-01T06:32:35.339Z,0
2022-10-01T06:33:35.326Z,0
2022-10-01T06:34:35.300Z,0
2022-10-01T06:35:35.641Z,0
2022-10-01T06:36:38.334Z,0
2022-10-01T06:37:35.307Z,0
2022-10-01T06:38:35.192Z,0
2022-10-01T06:39:35.651Z,0
2022-10-01T06:40:35.570Z,0
2022-10-01T06:41:35.852Z,0
2022-10-01T06:42:35.216Z,0
2022-10-01T06:43:35.183Z,0
2022-10-01T06:44:35.201Z,0
2022-10-01T06:45:35.264Z,0
2022-10-01T06:46:35.352Z,0
2022-10-01T06:47:38.217Z,0
2022-10-01T06:48:35.282Z,0
2022-10-01T06:49:35.320Z,0
2022-10-01T06:50:35.295Z,0
2022-10-01T06:51:35.614Z,0
2022-10-01T06:52:35.300Z,0
2022-10-01T06:53:35.185Z,0
2022-10-01T06:54:35.650Z,0
2022-10-01T06:55:35.568Z,0
2022-10-01T06:56:35.281Z,0
2022-10-01T06:57:35.189Z,0
2022-10-01T06:58:38.207Z,0
2022-10-01T06:59:35.369Z,0
2022-10-01T07:00:35.571Z,0
2022-10-01T07:01:35.585Z,0
2022-10-01T07:02:35.439Z,0
2022-10-01T07:03:35.378Z,0
2022-10-01T07:04:35.345Z,0
2022-10-01T07:05:35.641Z,0
2022-10-01T07:06:35.419Z,0
2022-10-01T07:07:35.330Z,0
2022-10-01T07:08:35.276Z,0
2022-10-01T07:09:41.258Z,0
2022-10-01T07:10:35.594Z,0
2022-10-01T07:11:35.630Z,0
2022-10-01T07:12:35.298Z,0
2022-10-01T07:13:35.385Z,0
2022-10-01T07:14:35.321Z,0
2022-10-01T07:15:35.273Z,0
2022-10-01T07:16:35.235Z,0
2022-10-01T07:17:35.280Z,0
2022-10-01T07:18:35.201Z,0
2022-10-01T07:19:35.335Z,0
2022-10-01T07:20:41.253Z,0
2022-10-01T07:21:35.757Z,0
2022-10-01T07:22:35.213Z,0
2022-10-01T07:23:35.186Z,0
2022-10-01T07:24:35.639Z,0
2022-10-01T07:25:35.582Z,0
2022-10-01T07:26:35.185Z,0
2022-10-01T07:27:35.359Z,0
2022-10-01T07:28:35.307Z,0
2022-10-01T07:29:35.196Z,0
2022-10-01T07:30:35.577Z,0
2022-10-01T07:31:38.892Z,0
2022-10-01T07:32:35.364Z,0
2022-10-01T07:33:35.280Z,0
2022-10-01T07:34:35.275Z,0
2022-10-01T07:35:35.564Z,0
2022-10-01T07:36:35.292Z,0
2022-10-01T07:37:35.199Z,0
2022-10-01T07:38:35.286Z,0
2022-10-01T07:39:35.647Z,0
2022-10-01T07:40:35.568Z,0
2022-10-01T07:41:35.495Z,0
2022-10-01T07:42:38.325Z,0
2022-10-01T07:43:35.340Z,0
2022-10-01T07:44:35.291Z,0
2022-10-01T07:45:35.458Z,0
2022-10-01T07:46:35.214Z,0
2022-10-01T07:47:35.306Z,0
2022-10-01T07:48:35.212Z,0
2022-10-01T07:49:35.199Z,0
2022-10-01T07:50:35.638Z,0
2022-10-01T07:51:35.653Z,0
2022-10-01T07:52:35.216Z,0
2022-10-01T07:53:38.254Z,0
2022-10-01T07:54:35.652Z,0
2022-10-01T07:55:35.606Z,0
2022-10-01T07:56:35.307Z,0
2022-10-01T07:57:35.263Z,0
2022-10-01T07:58:35.338Z,0
2022-10-01T07:59:35.349Z,0
2022-10-01T08:00:35.640Z,0
2022-10-01T08:01:35.554Z,0
2022-10-01T08:02:35.232Z,0
2022-10-01T08:03:35.174Z,0
2022-10-01T08:04:38.333Z,0
2022-10-01T08:05:35.572Z,0
2022-10-01T08:06:35.292Z,0
2022-10-01T08:07:35.297Z,0
2022-10-01T08:08:35.376Z,0
2022-10-01T08:09:35.644Z,0
2022-10-01T08:10:35.566Z,0
2022-10-01T08:11:35.715Z,0
2022-10-01T08:12:35.389Z,0
2022-10-01T08:13:35.383Z,0
2022-10-01T08:14:35.396Z,0
2022-10-01T08:15:41.291Z,0
2022-10-01T08:16:35.430Z,0
2022-10-01T08:17:35.331Z,0
2022-10-01T08:18:35.305Z,0
2022-10-01T08:19:35.306Z,0
2022-10-01T08:20:35.280Z,0
2022-10-01T08:21:35.548Z,0
2022-10-01T08:22:38.634Z,0
2022-10-01T08:23:35.325Z,0
2022-10-01T08:24:35.397Z,0
2022-10-01T08:25:35.382Z,0
2022-10-01T08:26:38.225Z,0
2022-10-01T08:27:35.385Z,0
2022-10-01T08:28:35.332Z,0
2022-10-01T08:29:35.334Z,0
2022-10-01T08:30:35.525Z,0
2022-10-01T08:31:35.789Z,0
2022-10-01T08:32:35.210Z,0
2022-10-01T08:33:35.294Z,0
2022-10-01T08:34:35.204Z,0
2022-10-01T08:35:35.187Z,0
2022-10-01T08:36:35.203Z,0
2022-10-01T08:37:41.241Z,0
2022-10-01T08:38:35.284Z,0
2022-10-01T08:39:35.237Z,0
2022-10-01T08:40:35.406Z,0
2022-10-01T08:41:35.814Z,0
2022-10-01T08:42:35.423Z,0
2022-10-01T08:43:35.299Z,0
2022-10-01T08:44:35.298Z,0
2022-10-01T08:45:35.392Z,0
2022-10-01T08:46:35.329Z,0
2022-10-01T08:47:35.564Z,0
2022-10-01T08:48:38.294Z,0
2022-10-01T08:49:35.364Z,0
2022-10-01T08:50:35.213Z,0
2022-10-01T08:51:35.637Z,0
2022-10-01T08:52:35.630Z,0
2022-10-01T08:53:35.277Z,0
2022-10-01T08:54:35.200Z,0
2022-10-01T08:55:35.204Z,0
2022-10-01T08:56:35.332Z,0
2022-10-01T08:57:35.199Z,0
2022-10-01T08:58:35.202Z,0
2022-10-01T08:59:38.233Z,0
2022-10-01T09:00:35.264Z,0
2022-10-01T09:01:35.557Z,0
2022-10-01T09:02:35.632Z,0
2022-10-01T09:03:35.405Z,0
2022-10-01T09:04:35.479Z,0
2022-10-01T09:05:35.285Z,0
2022-10-01T09:06:35.328Z,0
2022-10-01T09:07:35.633Z,0
2022-10-01T09:08:35.287Z,0
2022-10-01T09:09:35.272Z,0
2022-10-01T09:10:38.320Z,0
2022-10-01T09:11:35.635Z,0
2022-10-01T09:12:35.349Z,0
2022-10-01T09:13:35.379Z,0
2022-10-01T09:14:35.188Z,0
2022-10-01T09:15:35.208Z,0
2022-10-01T09:16:35.365Z,0
2022-10-01T09:17:35.322Z,0
2022-10-01T09:18:35.256Z,0
2022-10-01T09:19:35.184Z,0
2022-10-01T09:20:35.205Z,0
2022-10-01T09:21:38.239Z,0
2022-10-01T09:22:35.567Z,0
2022-10-01T09:23:35.388Z,0
2022-10-01T09:24:35.287Z,0
2022-10-01T09:25:35.284Z,0
2022-10-01T09:26:35.376Z,0
2022-10-01T09:27:35.202Z,0
2022-10-01T09:28:35.286Z,0
2022-10-01T09:29:35.333Z,0
2022-10-01T09:30:35.323Z,0
2022-10-01T09:31:36.146Z,0
2022-10-01T09:32:38.362Z,0
2022-10-01T09:33:35.374Z,0
2022-10-01T09:34:35.393Z,0
2022-10-01T09:35:35.190Z,0
2022-10-01T09:36:35.629Z,0
2022-10-01T09:37:35.558Z,0
2022-10-01T09:38:35.201Z,0
2022-10-01T09:39:35.308Z,0
2022-10-01T09:40:35.289Z,0
2022-10-01T09:41:35.990Z,0
2022-10-01T09:42:35.409Z,0
2022-10-01T09:43:38.346Z,0
2022-10-01T09:44:35.397Z,0
2022-10-01T09:45:35.394Z,0
2022-10-01T09:46:35.291Z,0
2022-10-01T09:47:35.277Z,0
2022-10-01T09:48:35.340Z,0
2022-10-01T09:49:35.206Z,0
2022-10-01T09:50:35.198Z,0
2022-10-01T09:51:40.053Z,0
2022-10-01T09:52:35.296Z,0
2022-10-01T09:53:35.305Z,0
2022-10-01T09:54:38.289Z,0
2022-10-01T09:55:35.337Z,0
2022-10-01T09:56:35.331Z,0
2022-10-01T09:57:35.303Z,0
2022-10-01T09:58:35.290Z,0
2022-10-01T09:59:35.279Z,0
2022-10-01T10:00:35.210Z,0
2022-10-01T10:01:35.977Z,0
2022-10-01T10:02:35.490Z,0
2022-10-01T10:03:35.417Z,0
2022-10-01T10:04:35.299Z,0
2022-10-01T10:05:38.197Z,0
2022-10-01T10:06:35.630Z,0
2022-10-01T10:07:35.308Z,0
2022-10-01T10:08:35.347Z,0
2022-10-01T10:09:35.313Z,0
2022-10-01T10:10:35.335Z,0
2022-10-01T10:11:36.040Z,0
2022-10-01T10:12:35.227Z,0
2022-10-01T10:13:35.492Z,0
2022-10-01T10:14:35.416Z,0
2022-10-01T10:15:35.505Z,0
2022-10-01T10:16:41.249Z,0
2022-10-01T10:17:35.319Z,0
2022-10-01T10:18:35.513Z,0
2022-10-01T10:19:35.376Z,0
2022-10-01T10:20:35.332Z,0
2022-10-01T10:21:35.574Z,0
2022-10-01T10:22:35.198Z,0
2022-10-01T10:23:35.190Z,0
2022-10-01T10:24:35.284Z,0
2022-10-01T10:25:35.188Z,0
2022-10-01T10:26:35.621Z,0
2022-10-01T10:27:38.206Z,0
2022-10-01T10:28:38.572Z,0
2022-10-01T10:29:35.286Z,0
2022-10-01T10:30:35.295Z,0
2022-10-01T10:31:35.418Z,0
2022-10-01T10:32:35.301Z,0
2022-10-01T10:33:35.282Z,0
2022-10-01T10:34:35.189Z,0
2022-10-01T10:35:35.208Z,0
2022-10-01T10:36:36.133Z,0
2022-10-01T10:37:35.413Z,0
2022-10-01T10:38:38.241Z,0
2022-10-01T10:39:35.289Z,0
2022-10-01T10:40:35.306Z,0
2022-10-01T10:41:35.788Z,0
2022-10-01T10:42:35.358Z,0
2022-10-01T10:43:35.291Z,0
2022-10-01T10:44:35.350Z,0
2022-10-01T10:45:35.304Z,0
2022-10-01T10:46:35.437Z,0
2022-10-01T10:47:35.177Z,0
2022-10-01T10:48:35.339Z,0
2022-10-01T10:49:38.340Z,0
2022-10-01T10:50:35.358Z,0
2022-10-01T10:51:36.140Z,0
2022-10-01T10:52:35.282Z,0
2022-10-01T10:53:35.200Z,0
2022-10-01T10:54:35.186Z,0
2022-10-01T10:55:35.204Z,0
2022-10-01T10:56:35.810Z,0
2022-10-01T10:57:35.204Z,0
2022-10-01T10:58:35.197Z,0
2022-10-01T10:59:35.202Z,0
2022-10-01T11:00:38.273Z,0
2022-10-01T11:01:35.899Z,0
2022-10-01T11:02:35.483Z,0
2022-10-01T11:03:35.205Z,0
2022-10-01T11:04:35.248Z,0
2022-10-01T11:05:35.300Z,0
2022-10-01T11:06:35.974Z,0
2022-10-01T11:07:35.194Z,0
2022-10-01T11:08:35.215Z,0
2022-10-01T11:09:35.626Z,0
2022-10-01T11:10:35.252Z,0
2022-10-01T11:11:41.221Z,0
2022-10-01T11:12:35.369Z,0
2022-10-01T11:13:35.264Z,0
2022-10-01T11:14:35.335Z,0
2022-10-01T11:15:35.387Z,0
2022-10-01T11:16:35.607Z,0
2022-10-01T11:17:35.183Z,0
2022-10-01T11:18:35.209Z,0
2022-10-01T11:19:35.200Z,0
2022-10-01T11:20:35.185Z,0
2022-10-01T11:21:35.704Z,0
2022-10-01T11:22:38.294Z,0
2022-10-01T11:23:35.337Z,0
2022-10-01T11:24:35.295Z,0
2022-10-01T11:25:35.398Z,0
2022-10-01T11:26:35.923Z,0
2022-10-01T11:27:35.373Z,0
2022-10-01T11:28:35.354Z,0
2022-10-01T11:29:35.280Z,0
2022-10-01T11:30:35.195Z,0
2022-10-01T11:31:35.720Z,0
2022-10-01T11:32:35.361Z,0
2022-10-01T11:33:38.249Z,0
2022-10-01T11:34:35.287Z,0
2022-10-01T11:35:35.322Z,0
2022-10-01T11:36:35.942Z,0
2022-10-01T11:37:35.632Z,0
2022-10-01T11:38:35.380Z,0
2022-10-01T11:39:35.200Z,0
2022-10-01T11:40:35.183Z,0
2022-10-01T11:41:35.633Z,0
2022-10-01T11:42:35.272Z,0
2022-10-01T11:43:35.336Z,0
2022-10-01T11:44:38.296Z,0
2022-10-01T11:45:35.412Z,0
2022-10-01T11:46:35.814Z,0
2022-10-01T11:47:35.394Z,0
2022-10-01T11:48:35.292Z,0
2022-10-01T11:49:35.303Z,0
2022-10-01T11:50:39.253Z,0
2022-10-01T11:51:35.627Z,0
2022-10-01T11:52:35.565Z,0
2022-10-01T11:53:35.416Z,0
2022-10-01T11:54:35.386Z,0
2022-10-01T11:55:38.273Z,0
2022-10-01T11:56:35.739Z,0
2022-10-01T11:57:35.397Z,0
2022-10-01T11:58:35.335Z,0
2022-10-01T11:59:35.290Z,0
2022-10-01T12:00:35.179Z,0
2022-10-01T12:01:35.659Z,0
2022-10-01T12:02:35.278Z,0
2022-10-01T12:03:35.301Z,0
2022-10-01T12:04:35.311Z,0
2022-10-01T12:05:35.343Z,0
2022-10-01T12:06:38.613Z,0
2022-10-01T12:07:35.561Z,0
2022-10-01T12:08:35.373Z,0
2022-10-01T12:09:35.281Z,0
2022-10-01T12:10:35.340Z,0
2022-10-01T12:11:35.356Z,0
2022-10-01T12:12:35.322Z,0
2022-10-01T12:13:35.310Z,0
2022-10-01T12:14:35.290Z,0
2022-10-01T12:15:35.308Z,0
2022-10-01T12:16:35.955Z,0
2022-10-01T12:17:38.259Z,0
2022-10-01T12:18:35.351Z,0
2022-10-01T12:19:35.288Z,0
2022-10-01T12:20:35.309Z,0
2022-10-01T12:21:35.387Z,0
2022-10-01T12:22:35.562Z,0
2022-10-01T12:23:35.187Z,0
2022-10-01T12:24:35.208Z,0
2022-10-01T12:25:35.217Z,0
2022-10-01T12:26:35.706Z,0
2022-10-01T12:27:35.295Z,0
2022-10-01T12:28:38.299Z,0
2022-10-01T12:29:35.304Z,0
2022-10-01T12:30:35.203Z,0
2022-10-01T12:31:35.216Z,0
2022-10-01T12:32:35.328Z,0
2022-10-01T12:33:35.347Z,0
2022-10-01T12:34:35.315Z,0
2022-10-01T12:35:35.219Z,0
2022-10-01T12:36:35.547Z,0
2022-10-01T12:37:35.259Z,0
2022-10-01T12:38:35.202Z,0
2022-10-01T12:39:38.245Z,0
2022-10-01T12:40:35.363Z,0
2022-10-01T12:41:35.282Z,0
2022-10-01T12:42:35.416Z,0
2022-10-01T12:43:35.361Z,0
2022-10-01T12:44:35.191Z,0
2022-10-01T12:45:35.304Z,0
2022-10-01T12:46:35.491Z,0
2022-10-01T12:47:35.215Z,0
2022-10-01T12:48:35.226Z,0
2022-10-01T12:49:35.192Z,0
2022-10-01T12:50:38.226Z,0
2022-10-01T12:51:35.555Z,0
2022-10-01T12:52:35.561Z,0
2022-10-01T12:53:35.377Z,0
2022-10-01T12:54:35.323Z,85.25390625
2022-10-01T12:55:35.262Z,84.720703125
2022-10-01T12:56:35.907Z,84.5322265625
2022-10-01T12:57:35.309Z,82.328125
2022-10-01T12:58:35.327Z,82.4501953125
2022-10-01T12:59:35.408Z,82.6044921875
2022-10-01T13:00:35.362Z,82.7060546875
2022-10-01T13:01:38.281Z,82.18359375
2022-10-01T13:02:35.421Z,82.3896484375
2022-10-01T13:03:35.403Z,82.21484375
2022-10-01T13:04:35.270Z,82.0869140625
2022-10-01T13:05:35.339Z,81.1884765625
2022-10-01T13:06:35.869Z,80.4736328125
2022-10-01T13:07:35.551Z,79.935546875
2022-10-01T13:08:35.199Z,77.9580078125
2022-10-01T13:09:35.336Z,77.150390625
2022-10-01T13:10:35.203Z,76.779296875
2022-10-01T13:11:35.305Z,76.314453125
2022-10-01T13:12:38.190Z,75.1552734375
2022-10-01T13:13:35.304Z,73.810546875
2022-10-01T13:14:35.198Z,72.9609375
2022-10-01T13:15:35.291Z,73.3388671875
2022-10-01T13:16:35.901Z,72.7001953125
2022-10-01T13:17:35.339Z,72.71484375
2022-10-01T13:18:35.187Z,72.904296875
2022-10-01T13:19:35.186Z,72.5615234375
2022-10-01T13:20:35.324Z,71.9833984375
2022-10-01T13:21:35.557Z,71.2412109375
2022-10-01T13:22:35.568Z,69.9140625
2022-10-01T13:23:38.288Z,69.43359375
2022-10-01T13:24:35.308Z,69.2548828125
2022-10-01T13:25:35.338Z,70.525390625
2022-10-01T13:26:36.085Z,70.85546875
2022-10-01T13:27:35.396Z,69.7763671875
2022-10-01T13:28:35.322Z,69.173828125
2022-10-01T13:29:35.347Z,69.26953125
2022-10-01T13:30:35.336Z,70.5009765625
2022-10-01T13:31:35.480Z,70.7861328125
2022-10-01T13:32:35.200Z,69.0185546875
2022-10-01T13:33:35.326Z,67.98828125
2022-10-01T13:34:38.339Z,67.5205078125
2022-10-01T13:35:36.099Z,67.05859375
2022-10-01T13:36:36.092Z,67.7451171875
2022-10-01T13:37:35.559Z,67.5546875
2022-10-01T13:38:35.265Z,68.2099609375
2022-10-01T13:39:39.417Z,68.7099609375
2022-10-01T13:40:35.317Z,69.06640625
2022-10-01T13:41:35.934Z,68.482421875
2022-10-01T13:42:35.369Z,67.3359375
2022-10-01T13:43:35.296Z,67.29296875
2022-10-01T13:44:35.177Z,67.2666015625
2022-10-01T13:45:38.329Z,66.0966796875
2022-10-01T13:46:35.877Z,65.388671875
2022-10-01T13:47:35.381Z,64.357421875
2022-10-01T13:48:35.207Z,66.146484375
2022-10-01T13:49:35.196Z,65.8603515625
2022-10-01T13:50:35.178Z,66.53125
2022-10-01T13:51:35.553Z,67.2802734375
2022-10-01T13:52:35.639Z,67.2626953125
2022-10-01T13:53:35.402Z,67.90234375
2022-10-01T13:54:35.372Z,68.7265625
2022-10-01T13:55:35.392Z,69.103515625
2022-10-01T13:56:38.476Z,69.0634765625
2022-10-01T13:57:35.375Z,68.4443359375
2022-10-01T13:58:35.333Z,68.173828125
2022-10-01T13:59:35.393Z,68.1953125
2022-10-01T14:00:35.280Z,68.57421875
2022-10-01T14:01:35.703Z,68.5087890625
2022-10-01T14:02:35.251Z,68.97265625